Time;durP1;ratioP1;P1;durP2;ratioP2;P2;SDS_P1;SDS_P2;PMS_P1;PMS_P2;Temp;Humidity;BMP_temperature;BMP_pressure;BME280_temperature;BME280_humidity;BME280_pressure;Samples;Min_cycle;Max_cycle;Signal;HPM_P1;HPM_P2
2021/01/13 00:02:24;;;;;;;;;;;;;;;0.26;55.82;100245.41;5036783;28;19924;-80
2021/01/13 00:05:09;;;;;;;;;;;;;;;0.21;56.84;100261.41;5037131;28;20383;-81
2021/01/13 00:07:54;;;;;;;;;;;;;;;0.07;57.34;100257.59;5044965;28;19913;-81
2021/01/13 00:10:38;;;;;;;;;;;;;;;0.11;57.83;100251.47;5055991;28;20383;-80
2021/01/13 00:13:23;;;;;;;;;;;;;;;0.14;59.09;100256.31;5041632;28;19912;-80
2021/01/13 00:16:07;;;;;;;;;;;;;;;0.08;58.63;100238.63;5051873;28;19913;-81
2021/01/13 00:18:52;;;;;;;;;;;;;;;-0.13;60.78;100228.88;5040110;28;19913;-80
2021/01/13 00:21:36;;;;;;;;;;;;;;;0.22;60.57;100236.28;5056355;28;19912;-80
2021/01/13 00:24:22;;;;;;;;;;;;;;;-0.01;58.47;100234.84;5046600;28;20299;-80
2021/01/13 00:27:07;;;;;;;;;;;;;;;0.03;60.45;100229.78;5056748;28;19912;-80
2021/01/13 00:29:52;;;;;;;;;;;;;;;0.27;60.95;100237.13;5055293;28;19913;-80
2021/01/13 00:32:38;;;;;;;;;;;;;;;0.01;59.49;100224.66;5039445;28;19913;-80
2021/01/13 00:35:23;;;;;;;;;;;;;;;-0.09;58.71;100238.78;5024518;28;19913;-80
2021/01/13 00:38:09;;;;;;;;;;;;;;;-0.44;59.80;100251.84;5039550;28;19920;-80
2021/01/13 00:40:53;;;;;;;;;;;;;;;-0.69;59.93;100252.44;5040649;28;19912;-80
2021/01/13 00:43:37;;;;;;;;;;;;;;;-0.30;59.57;100263.72;5053837;28;20321;-81
2021/01/13 00:46:23;;;;;;;;;;;;;;;-0.53;59.86;100243.50;5040466;28;19913;-80
2021/01/13 00:49:08;;;;;;;;;;;;;;;-0.39;60.63;100248.41;5027863;28;20299;-80
2021/01/13 00:51:52;;;;;;;;;;;;;;;-0.14;60.87;100251.28;5046270;28;19913;-81
2021/01/13 00:54:37;;;;;;;;;;;;;;;-0.40;61.00;100246.81;5055101;28;19913;-80
2021/01/13 00:57:21;;;;;;;;;;;;;;;-0.28;61.47;100250.94;5044837;28;20359;-80
2021/01/13 01:00:07;;;;;;;;;;;;;;;-0.11;62.76;100238.25;5047807;28;19913;-81
2021/01/13 01:02:52;;;;;;;;;;;;;;;-0.16;60.69;100258.78;5047963;28;19917;-82
2021/01/13 01:05:36;;;;;;;;;;;;;;;-0.26;59.96;100256.03;5055360;28;20306;-81
2021/01/13 01:08:21;;;;;;;;;;;;;;;-0.55;60.00;100258.16;5041236;28;19913;-81
2021/01/13 01:11:06;;;;;;;;;;;;;;;-0.53;60.24;100256.06;5070527;22;19921;-79
2021/01/13 01:13:50;;;;;;;;;;;;;;;-0.35;59.47;100250.31;5023479;28;20387;-82
2021/01/13 01:16:39;;;;;;;;;;;;;;;-0.32;58.31;100249.03;5031585;28;19912;-81
2021/01/13 01:19:23;;;;;;;;;;;;;;;-0.41;58.14;100245.22;5020498;28;19916;-81
2021/01/13 01:22:09;;;;;;;;;;;;;;;-0.46;59.17;100251.31;5030544;28;19921;-81
2021/01/13 01:24:54;;;;;;;;;;;;;;;-0.64;60.28;100259.69;5030803;28;19913;-82
2021/01/13 01:27:38;;;;;;;;;;;;;;;-0.40;59.54;100252.94;5026298;28;20375;-81
2021/01/13 01:30:24;;;;;;;;;;;;;;;-0.44;60.02;100254.53;5013219;28;19913;-80
2021/01/13 01:33:09;;;;;;;;;;;;;;;-0.46;58.30;100248.66;5001158;28;19917;-81
2021/01/13 01:35:53;;;;;;;;;;;;;;;-0.51;59.20;100237.94;5013479;28;19914;-81
2021/01/13 01:38:40;;;;;;;;;;;;;;;-0.48;60.61;100229.41;5037507;28;19917;-82
2021/01/13 01:41:25;;;;;;;;;;;;;;;-0.28;59.32;100223.41;5012942;28;19913;-82
2021/01/13 01:44:10;;;;;;;;;;;;;;;-0.16;59.92;100221.38;5019214;28;20492;-82
2021/01/13 01:46:56;;;;;;;;;;;;;;;-0.24;60.00;100227.97;5017684;28;20299;-84
2021/01/13 01:49:43;;;;;;;;;;;;;;;-0.41;59.98;100234.53;5036734;28;19913;-85
2021/01/13 01:52:28;;;;;;;;;;;;;;;-0.44;61.18;100241.19;5016957;28;20299;-83
2021/01/13 01:55:13;;;;;;;;;;;;;;;-0.44;61.47;100251.84;5029605;28;19917;-81
2021/01/13 01:58:02;;;;;;;;;;;;;;;-0.49;61.14;100243.81;5020022;28;20470;-84
2021/01/13 02:00:47;;;;;;;;;;;;;;;-0.54;61.25;100251.75;5040326;28;19897;-84
2021/01/13 02:03:47;;;;;;;;;;;;;;;-0.47;61.66;100249.72;5021009;28;19921;-82
2021/01/13 02:06:33;;;;;;;;;;;;;;;-0.55;61.65;100244.81;5034485;28;20429;-80
2021/01/13 02:09:17;;;;;;;;;;;;;;;-0.77;62.12;100241.41;5011412;28;19925;-81
2021/01/13 02:12:12;;;;;;;;;;;;;;;-0.86;62.22;100249.84;5035615;28;20379;-82
2021/01/13 02:14:57;;;;;;;;;;;;;;;-0.58;62.09;100246.13;5023827;28;19921;-79
2021/01/13 02:17:43;;;;;;;;;;;;;;;-0.48;61.24;100251.56;5002798;28;19913;-82
2021/01/13 02:20:30;;;;;;;;;;;;;;;-0.26;62.44;100251.50;5036434;28;19913;-80
2021/01/13 02:23:28;;;;;;;;;;;;;;;-0.58;60.13;100237.31;5023929;28;19917;-80
2021/01/13 02:26:22;;;;;;;;;;;;;;;-1.59;62.20;100246.88;5034512;28;19913;-82
2021/01/13 02:29:06;;;;;;;;;;;;;;;-1.39;62.26;100249.78;5037416;28;19913;-81
2021/01/13 02:32:06;;;;;;;;;;;;;;;-1.56;63.30;100243.69;5033486;28;19912;-79
2021/01/13 02:34:56;;;;;;;;;;;;;;;-1.48;65.33;100244.09;5013985;28;20302;-83
2021/01/13 02:37:42;;;;;;;;;;;;;;;-1.19;63.50;100247.38;5021321;28;19913;-80
2021/01/13 02:40:28;;;;;;;;;;;;;;;-1.11;63.58;100254.91;5009566;28;19913;-80
2021/01/13 02:43:13;;;;;;;;;;;;;;;-1.37;62.78;100259.16;5030000;28;19921;-81
2021/01/13 02:45:58;;;;;;;;;;;;;;;-1.42;64.05;100259.06;5027414;28;20371;-81
2021/01/13 02:48:44;;;;;;;;;;;;;;;-1.19;63.45;100262.56;5033744;28;19913;-80
2021/01/13 02:51:30;;;;;;;;;;;;;;;-1.06;63.30;100273.66;5032224;28;19916;-82
2021/01/13 02:54:27;;;;;;;;;;;;;;;-1.15;63.73;100267.16;5031455;28;19920;-80
2021/01/13 02:57:14;;;;;;;;;;;;;;;-1.18;64.74;100259.66;5020661;28;19913;-82
2021/01/13 03:00:02;;;;;;;;;;;;;;;-1.04;64.42;100258.22;5033989;28;19917;-81
2021/01/13 03:02:49;;;;;;;;;;;;;;;-1.08;63.67;100265.09;5020384;28;20383;-82
2021/01/13 03:05:34;;;;;;;;;;;;;;;-1.25;64.32;100261.69;5019493;28;19916;-79
2021/01/13 03:08:26;;;;;;;;;;;;;;;-1.22;63.23;100260.41;5036857;28;19916;-79
2021/01/13 03:11:20;;;;;;;;;;;;;;;-1.24;64.68;100257.16;5009095;28;19913;-79
2021/01/13 03:14:09;;;;;;;;;;;;;;;-1.01;65.31;100252.38;5014107;28;19912;-81
2021/01/13 03:17:06;;;;;;;;;;;;;;;-1.04;64.35;100266.22;5023522;28;19913;-79
2021/01/13 03:19:51;;;;;;;;;;;;;;;-1.01;63.35;100263.03;5034332;28;20295;-80
2021/01/13 03:22:39;;;;;;;;;;;;;;;-1.46;62.93;100265.16;5036131;28;19925;-80
2021/01/13 03:25:25;;;;;;;;;;;;;;;-1.96;65.43;100266.06;5034641;28;19913;-79
2021/01/13 03:28:10;;;;;;;;;;;;;;;-1.84;65.91;100281.97;5033020;28;20119;-81
2021/01/13 03:30:55;;;;;;;;;;;;;;;-1.94;65.72;100263.97;5031330;28;19913;-80
2021/01/13 03:33:58;;;;;;;;;;;;;;;-1.61;65.92;100279.09;5026402;28;20391;-82
2021/01/13 03:36:55;;;;;;;;;;;;;;;-1.41;64.33;100287.38;5033618;28;19913;-81
2021/01/13 03:39:40;;;;;;;;;;;;;;;-1.91;64.37;100281.31;5038389;28;20367;-82
2021/01/13 03:42:26;;;;;;;;;;;;;;;-2.17;65.49;100274.78;5039926;28;19917;-81
2021/01/13 03:45:12;;;;;;;;;;;;;;;-2.33;65.62;100280.91;5036013;28;19913;-81
2021/01/13 03:48:02;;;;;;;;;;;;;;;-2.10;64.90;100272.78;5006720;28;19913;-81
2021/01/13 03:50:50;;;;;;;;;;;;;;;-1.86;68.23;100282.22;5015473;28;19914;-80
2021/01/13 03:53:40;;;;;;;;;;;;;;;-2.00;64.88;100275.59;5024147;28;19913;-80
2021/01/13 03:56:25;;;;;;;;;;;;;;;-1.75;65.64;100285.84;5017166;28;19917;-80
2021/01/13 03:59:15;;;;;;;;;;;;;;;-1.97;64.48;100266.31;5034313;28;20307;-80
2021/01/13 04:02:01;;;;;;;;;;;;;;;-1.70;65.08;100287.75;5034457;28;19913;-80
2021/01/13 04:05:12;;;;;;;;;;;;;;;-1.75;66.75;100277.84;5033482;28;19917;-82
2021/01/13 04:07:57;;;;;;;;;;;;;;;-1.65;64.77;100285.97;5006349;28;19914;-81
2021/01/13 04:10:41;;;;;;;;;;;;;;;-1.53;63.88;100291.22;5029318;28;19913;-81
2021/01/13 04:13:33;;;;;;;;;;;;;;;-2.07;66.45;100290.13;5014205;28;19913;-80
2021/01/13 04:16:20;;;;;;;;;;;;;;;-1.76;65.80;100297.53;5022852;28;20295;-81
2021/01/13 04:19:05;;;;;;;;;;;;;;;-1.90;64.59;100296.25;5038358;28;20303;-79
2021/01/13 04:21:51;;;;;;;;;;;;;;;-2.26;65.08;100298.38;5008413;28;19913;-80
2021/01/13 04:24:35;;;;;;;;;;;;;;;-2.24;65.14;100298.94;5023243;28;20331;-81
2021/01/13 04:27:20;;;;;;;;;;;;;;;-2.11;64.21;100297.81;5012483;28;20298;-82
2021/01/13 04:30:05;;;;;;;;;;;;;;;-1.90;66.19;100304.25;5013251;28;20298;-84
2021/01/13 04:32:50;;;;;;;;;;;;;;;-1.97;65.64;100307.06;5021338;28;19917;-82
2021/01/13 04:35:34;;;;;;;;;;;;;;;-1.80;64.76;100307.06;5020884;28;20407;-84
2021/01/13 04:38:29;;;;;;;;;;;;;;;-2.17;64.80;100317.41;5000915;28;20316;-85
2021/01/13 04:41:17;;;;;;;;;;;;;;;-2.01;64.62;100307.81;5006699;28;19913;-82
2021/01/13 04:44:03;;;;;;;;;;;;;;;-1.96;65.12;100313.22;5034357;28;19917;-84
2021/01/13 04:46:49;;;;;;;;;;;;;;;-1.89;65.31;100336.00;5028391;28;20015;-80
2021/01/13 04:49:34;;;;;;;;;;;;;;;-2.17;64.56;100322.72;5049875;28;19913;-82
2021/01/13 04:52:26;;;;;;;;;;;;;;;-2.16;64.26;100319.03;5018456;28;19917;-85
2021/01/13 04:55:22;;;;;;;;;;;;;;;-2.48;66.52;100320.59;5024049;28;19913;-86
2021/01/13 04:58:18;;;;;;;;;;;;;;;-2.27;65.62;100323.38;5020668;28;19920;-83
2021/01/13 05:01:06;;;;;;;;;;;;;;;-2.26;67.47;100324.19;5031450;28;19913;-82
2021/01/13 05:03:59;;;;;;;;;;;;;;;-2.37;66.85;100317.06;5030951;28;19917;-83
2021/01/13 05:06:48;;;;;;;;;;;;;;;-2.41;66.32;100329.25;5016841;28;20379;-81
2021/01/13 05:09:43;;;;;;;;;;;;;;;-2.58;67.14;100327.34;5031513;28;19913;-79
2021/01/13 05:12:47;;;;;;;;;;;;;;;-2.32;66.40;100325.13;5013792;28;19913;-80
2021/01/13 05:15:32;;;;;;;;;;;;;;;-2.36;66.25;100327.47;5023746;28;19913;-82
2021/01/13 05:18:24;;;;;;;;;;;;;;;-2.26;66.37;100332.16;5023109;28;19913;-79
2021/01/13 05:21:17;;;;;;;;;;;;;;;-2.19;68.12;100330.16;5018580;28;19913;-82
2021/01/13 05:24:05;;;;;;;;;;;;;;;-2.15;65.85;100336.63;5035610;28;20708;-80
2021/01/13 05:27:01;;;;;;;;;;;;;;;-2.11;65.87;100350.25;5012935;28;19913;-80
2021/01/13 05:29:49;;;;;;;;;;;;;;;-2.03;66.03;100336.56;5015977;28;19913;-77
2021/01/13 05:32:33;;;;;;;;;;;;;;;-2.27;66.03;100350.00;5026520;28;19913;-79
2021/01/13 05:35:20;;;;;;;;;;;;;;;-2.20;65.94;100353.31;5025926;28;20579;-81
2021/01/13 05:38:06;;;;;;;;;;;;;;;-2.44;67.17;100353.69;5030835;28;19913;-80
2021/01/13 05:40:51;;;;;;;;;;;;;;;-2.71;68.30;100367.56;5019807;28;19912;-81
2021/01/13 05:43:41;;;;;;;;;;;;;;;-2.93;69.65;100365.75;5012151;28;19917;-80
2021/01/13 05:46:34;;;;;;;;;;;;;;;-2.65;68.40;100363.16;5027219;28;20384;-79
2021/01/13 05:49:20;;;;;;;;;;;;;;;-2.63;67.76;100380.47;5022281;28;19921;-79
2021/01/13 05:52:07;;;;;;;;;;;;;;;-2.80;68.03;100368.97;5014339;28;19914;-82
2021/01/13 05:54:53;;;;;;;;;;;;;;;-2.74;68.53;100377.84;5018969;28;19913;-79
2021/01/13 05:57:37;;;;;;;;;;;;;;;-2.39;66.98;100375.88;5021761;28;19914;-81
2021/01/13 06:00:23;;;;;;;;;;;;;;;-2.23;66.70;100382.28;5015774;28;19913;-79
2021/01/13 06:03:10;;;;;;;;;;;;;;;-2.32;66.74;100383.72;5031068;28;19917;-79
2021/01/13 06:05:56;;;;;;;;;;;;;;;-2.67;68.25;100387.31;5032021;28;20287;-79
2021/01/13 06:08:43;;;;;;;;;;;;;;;-2.58;67.53;100390.41;5025696;28;19912;-78
2021/01/13 06:11:29;;;;;;;;;;;;;;;-2.74;67.76;100388.50;5016802;28;19913;-81
2021/01/13 06:14:22;;;;;;;;;;;;;;;-2.54;67.24;100390.75;5034546;28;19913;-80
2021/01/13 06:17:06;;;;;;;;;;;;;;;-2.49;67.26;100388.19;5023541;28;19913;-78
2021/01/13 06:19:52;;;;;;;;;;;;;;;-2.38;67.01;100408.63;5006995;28;20291;-79
2021/01/13 06:22:36;;;;;;;;;;;;;;;-2.57;67.39;100389.38;5021967;28;20367;-79
2021/01/13 06:25:24;;;;;;;;;;;;;;;-2.39;67.72;100404.38;5032893;28;19913;-78
2021/01/13 06:28:11;;;;;;;;;;;;;;;-2.49;68.39;100406.84;5030970;28;20375;-79
2021/01/13 06:31:08;;;;;;;;;;;;;;;-2.68;68.67;100414.97;5030588;28;19913;-78
2021/01/13 06:34:05;;;;;;;;;;;;;;;-2.46;68.16;100407.16;5031061;28;20395;-79
2021/01/13 06:36:57;;;;;;;;;;;;;;;-2.55;67.95;100416.56;5029307;28;19917;-80
2021/01/13 06:39:42;;;;;;;;;;;;;;;-2.62;67.34;100422.00;5024705;28;19913;-79
2021/01/13 06:42:31;;;;;;;;;;;;;;;-2.68;68.62;100414.97;5015310;28;19921;-80
2021/01/13 06:45:29;;;;;;;;;;;;;;;-2.42;68.36;100431.44;5025395;28;19917;-77
2021/01/13 06:48:14;;;;;;;;;;;;;;;-2.33;69.41;100433.47;5031622;28;19913;-80
2021/01/13 06:50:59;;;;;;;;;;;;;;;-2.30;67.88;100443.69;5030021;28;19913;-79
2021/01/13 06:53:47;;;;;;;;;;;;;;;-2.32;67.66;100456.41;5020922;28;19913;-79
2021/01/13 06:56:34;;;;;;;;;;;;;;;-2.11;66.85;100444.28;5021170;28;19913;-79
2021/01/13 06:59:21;;;;;;;;;;;;;;;-2.04;65.58;100444.97;5034449;28;19917;-77
2021/01/13 07:02:05;;;;;;;;;;;;;;;-1.90;65.37;100451.59;5035059;28;19913;-78
2021/01/13 07:04:50;;;;;;;;;;;;;;;-1.96;65.34;100457.88;5040843;28;19917;-78
2021/01/13 07:07:40;;;;;;;;;;;;;;;-2.04;65.96;100458.28;5026034;28;20295;-80
2021/01/13 07:10:25;;;;;;;;;;;;;;;-1.90;66.04;100450.78;5060630;22;20509;-79
2021/01/13 07:13:10;;;;;;;;;;;;;;;-1.81;65.25;100455.47;5045205;28;20379;-80
2021/01/13 07:15:59;;;;;;;;;;;;;;;-1.94;65.50;100460.31;5035683;28;19917;-79
2021/01/13 07:18:45;;;;;;;;;;;;;;;-1.71;66.37;100460.19;5025136;28;19913;-80
2021/01/13 07:21:37;;;;;;;;;;;;;;;-1.54;65.19;100481.53;5047178;28;19912;-80
2021/01/13 07:24:21;;;;;;;;;;;;;;;-1.68;64.80;100482.88;5055468;28;19921;-80
2021/01/13 07:27:07;;;;;;;;;;;;;;;-1.71;65.13;100470.84;5056357;28;19913;-80
2021/01/13 07:29:54;;;;;;;;;;;;;;;-1.63;64.38;100478.47;5042161;28;19917;-80
2021/01/13 07:32:41;;;;;;;;;;;;;;;-1.48;65.47;100480.56;5047129;28;20298;-80
2021/01/13 07:35:30;;;;;;;;;;;;;;;-1.40;65.06;100482.81;5044411;28;19913;-80
2021/01/13 07:38:16;;;;;;;;;;;;;;;-1.48;65.86;100491.22;5042116;28;20330;-80
2021/01/13 07:41:07;;;;;;;;;;;;;;;-1.26;64.34;100477.97;5046931;28;19916;-80
2021/01/13 07:44:14;;;;;;;;;;;;;;;-1.24;64.85;100482.00;5044137;28;19917;-81
2021/01/13 07:47:03;;;;;;;;;;;;;;;-1.10;65.19;100493.97;5043128;28;19913;-81
2021/01/13 07:49:54;;;;;;;;;;;;;;;-1.15;65.58;100493.88;5056520;28;19912;-80
2021/01/13 07:52:49;;;;;;;;;;;;;;;-1.10;65.21;100493.97;5054492;28;19913;-80
2021/01/13 07:55:40;;;;;;;;;;;;;;;-1.00;65.46;100491.44;5054894;28;19913;-80
2021/01/13 07:58:28;;;;;;;;;;;;;;;-0.81;64.71;100496.53;5051731;28;19917;-78
2021/01/13 08:01:31;;;;;;;;;;;;;;;-0.85;64.40;100490.84;5038635;28;19924;-81
2021/01/13 08:04:45;;;;;;;;;;;;;;;-0.93;64.40;100500.09;5035662;28;19917;-80
2021/01/13 08:07:40;;;;;;;;;;;;;;;-0.83;65.27;100503.97;5019031;28;19913;-79
2021/01/13 08:10:25;;;;;;;;;;;;;;;-0.63;65.15;100517.59;5042753;28;19921;-79
2021/01/13 08:13:12;;;;;;;;;;;;;;;-0.54;65.21;100524.94;5031514;28;20387;-79
2021/01/13 08:16:24;;;;;;;;;;;;;;;-0.60;65.93;100523.25;5040117;28;19912;-79
2021/01/13 08:19:28;;;;;;;;;;;;;;;-0.33;65.19;100525.19;5050811;28;19912;-80
2021/01/13 08:22:19;;;;;;;;;;;;;;;-0.08;65.14;100545.03;5036513;28;19917;-80
2021/01/13 08:25:12;;;;;;;;;;;;;;;0.11;63.89;100540.16;5033696;28;19921;-80
2021/01/13 08:27:58;;;;;;;;;;;;;;;0.14;63.60;100528.97;5035047;28;19913;-80
2021/01/13 08:30:47;;;;;;;;;;;;;;;0.31;64.17;100545.72;5020878;28;19912;-80
2021/01/13 08:33:36;;;;;;;;;;;;;;;0.29;64.24;100539.03;5043501;28;19912;-80
2021/01/13 08:36:21;;;;;;;;;;;;;;;0.47;64.32;100541.34;5046275;28;19913;-80
2021/01/13 08:39:06;;;;;;;;;;;;;;;0.53;62.91;100536.84;5034942;28;19913;-79
2021/01/13 08:41:51;;;;;;;;;;;;;;;0.60;63.27;100554.31;5035646;28;19913;-79
2021/01/13 08:44:39;;;;;;;;;;;;;;;0.85;62.69;100543.03;5037208;28;19916;-80
2021/01/13 08:47:24;;;;;;;;;;;;;;;0.80;63.51;100538.44;5020583;28;20427;-79
2021/01/13 08:50:14;;;;;;;;;;;;;;;0.90;63.49;100550.28;5039889;28;19913;-80
2021/01/13 08:53:01;;;;;;;;;;;;;;;0.91;62.90;100543.88;5036448;28;19913;-80
2021/01/13 08:55:51;;;;;;;;;;;;;;;0.88;62.40;100549.72;5038319;28;19912;-80
2021/01/13 08:58:35;;;;;;;;;;;;;;;1.04;63.10;100562.19;5040078;28;19912;-80
2021/01/13 09:01:35;;;;;;;;;;;;;;;1.03;62.94;100564.03;5054686;28;19912;-80
2021/01/13 09:04:22;;;;;;;;;;;;;;;1.09;62.41;100564.88;5039545;28;19917;-79
2021/01/13 09:07:11;;;;;;;;;;;;;;;1.29;61.21;100573.06;5058153;28;19913;-80
2021/01/13 09:09:59;;;;;;;;;;;;;;;1.56;60.55;100564.94;5053917;28;19912;-80
2021/01/13 09:12:45;;;;;;;;;;;;;;;1.39;59.50;100549.03;5054291;28;20375;-80
2021/01/13 09:15:30;;;;;;;;;;;;;;;1.50;59.54;100566.78;5054888;28;19913;-81
2021/01/13 09:18:21;;;;;;;;;;;;;;;1.64;60.15;100573.28;5041102;28;19912;-79
2021/01/13 09:21:07;;;;;;;;;;;;;;;1.84;58.37;100569.91;5042206;28;19912;-87
2021/01/13 09:23:54;;;;;;;;;;;;;;;1.88;58.15;100583.63;5046360;28;19916;-84
2021/01/13 09:26:40;;;;;;;;;;;;;;;1.70;58.08;100588.34;5042948;28;20310;-84
2021/01/13 09:29:28;;;;;;;;;;;;;;;1.92;57.40;100579.34;5055929;28;19913;-84
2021/01/13 09:32:15;;;;;;;;;;;;;;;2.03;58.59;100575.66;5047880;28;20422;-84
2021/01/13 09:35:01;;;;;;;;;;;;;;;2.21;59.00;100577.84;5043616;28;19912;-84
2021/01/13 09:37:51;;;;;;;;;;;;;;;2.30;58.12;100587.00;5063030;28;19913;-82
2021/01/13 09:40:54;;;;;;;;;;;;;;;2.18;58.42;100589.13;5057378;28;19927;-82
2021/01/13 09:43:41;;;;;;;;;;;;;;;2.22;57.75;100592.06;5056439;28;19916;-82
2021/01/13 09:46:30;;;;;;;;;;;;;;;2.32;57.92;100594.78;5056080;28;19913;-80
2021/01/13 09:49:14;;;;;;;;;;;;;;;2.49;57.10;100590.78;5056552;28;19920;-81
2021/01/13 09:52:10;;;;;;;;;;;;;;;2.31;57.92;100595.84;5051633;28;19921;-80
2021/01/13 09:55:02;;;;;;;;;;;;;;;2.34;58.48;100598.00;5055438;28;19913;-81
2021/01/13 09:57:49;;;;;;;;;;;;;;;2.55;57.92;100587.06;5022010;28;19912;-80
2021/01/13 10:00:35;;;;;;;;;;;;;;;2.66;58.11;100595.13;5035389;28;19912;-80
2021/01/13 10:03:28;;;;;;;;;;;;;;;2.88;56.54;100606.47;5024511;28;20295;-81
2021/01/13 10:06:15;;;;;;;;;;;;;;;3.08;55.10;100605.66;5034895;28;19913;-81
2021/01/13 10:09:08;;;;;;;;;;;;;;;3.08;55.16;100602.97;5039809;28;19913;-81
2021/01/13 10:11:56;;;;;;;;;;;;;;;3.20;56.91;100600.84;5052266;28;19916;-80
2021/01/13 10:14:41;;;;;;;;;;;;;;;3.18;57.29;100601.09;5035713;28;19913;-81
2021/01/13 10:17:27;;;;;;;;;;;;;;;3.33;55.57;100606.47;5034663;28;19913;-81
2021/01/13 10:20:16;;;;;;;;;;;;;;;3.28;55.72;100609.16;5037400;28;19913;-80
2021/01/13 10:23:01;;;;;;;;;;;;;;;3.16;55.87;100613.19;5062557;28;19913;-80
2021/01/13 10:25:46;;;;;;;;;;;;;;;3.19;55.59;100610.78;5034960;28;19917;-81
2021/01/13 10:28:31;;;;;;;;;;;;;;;3.25;55.98;100612.38;5033584;28;19912;-80
2021/01/13 10:31:22;;;;;;;;;;;;;;;3.34;56.10;100591.97;5038031;28;19912;-81
2021/01/13 10:34:11;;;;;;;;;;;;;;;3.48;55.26;100602.16;5046071;28;20375;-80
2021/01/13 10:36:56;;;;;;;;;;;;;;;3.37;55.00;100595.97;5026352;28;19913;-80
2021/01/13 10:39:40;;;;;;;;;;;;;;;3.33;54.06;100601.09;5024538;28;20299;-80
2021/01/13 10:42:25;;;;;;;;;;;;;;;3.59;54.80;100598.38;5056355;28;19912;-81
2021/01/13 10:45:13;;;;;;;;;;;;;;;3.64;54.86;100593.00;5043149;28;19917;-78
2021/01/13 10:47:59;;;;;;;;;;;;;;;3.74;54.40;100598.34;5055252;28;20291;-78
2021/01/13 10:50:44;;;;;;;;;;;;;;;3.63;53.19;100599.44;5054906;28;19913;-77
2021/01/13 10:53:30;;;;;;;;;;;;;;;3.83;54.06;100599.38;5051338;28;19913;-77
2021/01/13 10:56:17;;;;;;;;;;;;;;;3.76;52.92;100601.53;5041360;28;19925;-78
2021/01/13 10:59:03;;;;;;;;;;;;;;;3.63;53.66;100591.38;5053756;28;20287;-77
2021/01/13 11:01:49;;;;;;;;;;;;;;;3.87;53.71;100587.81;5053783;28;19913;-77
2021/01/13 11:04:37;;;;;;;;;;;;;;;3.96;53.16;100598.84;5053575;28;19921;-77
2021/01/13 11:07:21;;;;;;;;;;;;;;;4.09;53.53;100590.16;5044898;28;19912;-78
2021/01/13 11:10:08;;;;;;;;;;;;;;;4.09;53.87;100597.44;5043083;28;19913;-78
2021/01/13 11:12:59;;;;;;;;;;;;;;;4.07;53.52;100588.81;5041575;28;19916;-77
2021/01/13 11:15:45;;;;;;;;;;;;;;;4.25;54.26;100591.72;5034551;28;19912;-78
2021/01/13 11:18:29;;;;;;;;;;;;;;;4.23;54.95;100593.88;5049822;28;19912;-78
2021/01/13 11:21:14;;;;;;;;;;;;;;;4.36;54.37;100580.91;5020625;28;19941;-78
2021/01/13 11:23:59;;;;;;;;;;;;;;;4.45;53.09;100577.34;5034414;28;19921;-78
2021/01/13 11:26:44;;;;;;;;;;;;;;;4.53;52.40;100582.13;5024659;28;19920;-77
2021/01/13 11:29:31;;;;;;;;;;;;;;;4.68;51.39;100578.53;5042010;28;19913;-77
2021/01/13 11:32:17;;;;;;;;;;;;;;;4.66;51.51;100569.94;5032995;28;20375;-77
2021/01/13 11:35:01;;;;;;;;;;;;;;;4.69;50.58;100574.78;5038209;28;19912;-78
2021/01/13 11:37:51;;;;;;;;;;;;;;;4.69;50.08;100575.56;5040659;28;19913;-79
2021/01/13 11:40:46;;;;;;;;;;;;;;;4.75;48.34;100579.03;5046984;28;19917;-77
2021/01/13 11:43:35;;;;;;;;;;;;;;;4.79;47.50;100580.09;5055011;28;19912;-78
2021/01/13 11:46:28;;;;;;;;;;;;;;;4.91;45.89;100593.22;5023673;28;19913;-78
2021/01/13 11:49:18;;;;;;;;;;;;;;;4.93;46.84;100597.22;5055560;28;19913;-78
2021/01/13 11:52:07;;;;;;;;;;;;;;;4.95;46.15;100589.66;5033003;28;19913;-77
2021/01/13 11:54:53;;;;;;;;;;;;;;;4.92;44.97;100584.84;5052080;28;19913;-78
2021/01/13 11:57:38;;;;;;;;;;;;;;;4.96;45.40;100590.47;5037200;28;19913;-78
2021/01/13 12:00:26;;;;;;;;;;;;;;;4.96;45.43;100588.59;5040893;28;19913;-78
2021/01/13 12:03:16;;;;;;;;;;;;;;;4.85;45.45;100581.66;5052173;28;19917;-81
2021/01/13 12:06:10;;;;;;;;;;;;;;;4.93;44.60;100581.06;5040966;28;19921;-78
2021/01/13 12:08:55;;;;;;;;;;;;;;;4.93;44.66;100583.75;5039595;28;19913;-78
2021/01/13 12:11:40;;;;;;;;;;;;;;;5.13;41.90;100575.50;5046811;28;19913;-78
2021/01/13 12:14:24;;;;;;;;;;;;;;;5.05;42.68;100578.81;5038387;28;20341;-78
2021/01/13 12:17:09;;;;;;;;;;;;;;;5.28;43.32;100577.28;5054976;28;19913;-78
2021/01/13 12:19:53;;;;;;;;;;;;;;;5.22;41.88;100586.50;5052865;28;19917;-78
2021/01/13 12:22:38;;;;;;;;;;;;;;;5.29;41.17;100578.06;5051666;28;19912;-78
2021/01/13 12:25:26;;;;;;;;;;;;;;;5.34;41.35;100570.75;5033348;28;19917;-77
2021/01/13 12:28:11;;;;;;;;;;;;;;;5.38;40.58;100573.69;5038516;28;19913;-78
2021/01/13 12:30:56;;;;;;;;;;;;;;;5.32;40.29;100572.13;5046799;28;19912;-77
2021/01/13 12:33:51;;;;;;;;;;;;;;;5.36;41.67;100565.06;5041904;28;19913;-78
2021/01/13 12:36:41;;;;;;;;;;;;;;;5.45;42.07;100566.06;5042587;28;19912;-78
2021/01/13 12:39:33;;;;;;;;;;;;;;;5.49;42.39;100572.50;5043475;28;20399;-78
2021/01/13 12:42:18;;;;;;;;;;;;;;;5.52;41.11;100574.63;5041774;28;19932;-78
2021/01/13 12:45:03;;;;;;;;;;;;;;;5.50;42.54;100563.31;5042951;28;19921;-78
2021/01/13 12:47:54;;;;;;;;;;;;;;;5.85;41.75;100573.72;5042295;28;20291;-78
2021/01/13 12:50:39;;;;;;;;;;;;;;;5.88;42.23;100575.09;5040263;28;20017;-78
2021/01/13 12:53:23;;;;;;;;;;;;;;;5.93;40.31;100578.53;5040991;28;19917;-78
2021/01/13 12:56:18;;;;;;;;;;;;;;;6.10;40.83;100569.16;5042002;28;19913;-78
2021/01/13 12:59:03;;;;;;;;;;;;;;;5.89;39.60;100572.09;5042773;28;19917;-77
2021/01/13 13:01:48;;;;;;;;;;;;;;;5.83;41.14;100565.13;5046628;28;20278;-78
2021/01/13 13:04:33;;;;;;;;;;;;;;;6.19;39.14;100570.13;5047666;28;19916;-79
2021/01/13 13:07:17;;;;;;;;;;;;;;;6.27;40.28;100561.38;5042042;28;19913;-78
2021/01/13 13:10:02;;;;;;;;;;;;;;;6.41;39.50;100554.97;5042151;28;19956;-78
2021/01/13 13:12:46;;;;;;;;;;;;;;;6.51;39.54;100559.41;5096623;22;20379;-77
2021/01/13 13:15:31;;;;;;;;;;;;;;;6.57;37.17;100558.25;5078230;28;19916;-77
2021/01/13 13:18:16;;;;;;;;;;;;;;;6.69;37.36;100561.34;5087329;28;19912;-76
2021/01/13 13:21:01;;;;;;;;;;;;;;;6.81;37.15;100558.97;5087432;28;19912;-77
2021/01/13 13:23:46;;;;;;;;;;;;;;;7.36;35.62;100556.47;5071395;28;19912;-76
2021/01/13 13:26:31;;;;;;;;;;;;;;;8.06;35.21;100558.91;5072299;28;19917;-76
2021/01/13 13:29:15;;;;;;;;;;;;;;;8.40;34.56;100562.00;5072172;28;19912;-76
2021/01/13 13:32:00;;;;;;;;;;;;;;;8.90;32.65;100564.66;5059493;28;19917;-76
2021/01/13 13:34:45;;;;;;;;;;;;;;;9.02;31.20;100562.19;5074698;28;19912;-76
2021/01/13 13:37:29;;;;;;;;;;;;;;;9.59;32.05;100565.91;5072424;28;19912;-75
2021/01/13 13:40:14;;;;;;;;;;;;;;;9.87;32.29;100561.06;5071230;28;20105;-77
2021/01/13 13:42:58;;;;;;;;;;;;;;;10.29;31.87;100568.56;5071286;28;20113;-76
2021/01/13 13:45:42;;;;;;;;;;;;;;;10.22;30.70;100568.22;5072075;28;19916;-75
2021/01/13 13:48:27;;;;;;;;;;;;;;;10.43;29.99;100564.91;5057245;28;19917;-76
2021/01/13 13:51:12;;;;;;;;;;;;;;;9.81;29.58;100565.03;5070892;28;19912;-76
2021/01/13 13:53:56;;;;;;;;;;;;;;;9.97;29.04;100566.22;5071382;28;19912;-77
2021/01/13 13:56:41;;;;;;;;;;;;;;;9.98;29.09;100565.09;5059171;28;19912;-77
2021/01/13 13:59:25;;;;;;;;;;;;;;;9.95;29.55;100565.75;5063732;28;19912;-79
2021/01/13 14:02:10;;;;;;;;;;;;;;;10.23;29.88;100571.75;5074057;28;19917;-78
2021/01/13 14:04:54;;;;;;;;;;;;;;;9.96;29.28;100561.88;5061282;28;19916;-77
2021/01/13 14:07:39;;;;;;;;;;;;;;;10.09;30.30;100571.84;5076876;28;20351;-79
2021/01/13 14:10:23;;;;;;;;;;;;;;;9.90;31.21;100562.38;5077185;28;20322;-77
2021/01/13 14:13:08;;;;;;;;;;;;;;;9.96;30.11;100574.66;5063937;28;19912;-78
2021/01/13 14:15:52;;;;;;;;;;;;;;;10.21;30.97;100580.22;5077663;28;19912;-78
2021/01/13 14:18:37;;;;;;;;;;;;;;;10.15;31.35;100576.03;5076597;28;19912;-77
2021/01/13 14:21:21;;;;;;;;;;;;;;;10.47;31.02;100565.88;5063125;28;19912;-78
2021/01/13 14:24:06;;;;;;;;;;;;;;;10.41;31.15;100572.59;5066850;28;19913;-78
2021/01/13 14:26:56;;;;;;;;;;;;;;;10.33;30.33;100565.22;5076903;28;20379;-77